createdAt,value
2017-07-25T00:02:20.564Z,47.06
2017-07-25T00:04:48.304Z,47.31
2017-07-25T00:07:16.273Z,47.05
2017-07-25T00:09:44.214Z,47.51
2017-07-25T00:12:12.081Z,47.34
2017-07-25T00:14:39.951Z,47.54
2017-07-25T00:17:07.969Z,48.03
2017-07-25T00:19:35.908Z,48.65
2017-07-25T00:22:03.875Z,47.74
2017-07-25T00:24:31.774Z,47.28
2017-07-25T00:26:59.480Z,47.84
2017-07-25T00:29:27.302Z,47.71
2017-07-25T00:31:55.244Z,47.48
2017-07-25T00:34:23.044Z,48.05
2017-07-25T00:36:50.876Z,49.28
2017-07-25T00:39:18.827Z,49.92
2017-07-25T00:41:46.764Z,49.56
2017-07-25T00:44:14.607Z,49.93
2017-07-25T00:46:42.374Z,50.52
2017-07-25T00:49:10.090Z,49.42
2017-07-25T00:51:37.957Z,49.64
2017-07-25T00:54:05.923Z,50.10
2017-07-25T00:56:33.740Z,49.33
2017-07-25T00:59:01.607Z,50.20
2017-07-25T01:01:29.524Z,49.75
2017-07-25T01:03:57.415Z,50.59
2017-07-25T01:06:25.157Z,50.21
2017-07-25T01:08:53.173Z,49.07
2017-07-25T01:11:20.893Z,48.45
2017-07-25T01:13:48.862Z,49.71
2017-07-25T01:16:16.726Z,48.74
2017-07-25T01:18:44.438Z,48.27
2017-07-25T01:21:12.463Z,48.15
2017-07-25T01:23:40.228Z,48.03
2017-07-25T01:26:08.197Z,47.65
2017-07-25T01:28:36.014Z,49.23
2017-07-25T01:31:03.774Z,47.94
2017-07-25T01:33:31.619Z,48.29
2017-07-25T01:35:59.365Z,47.56
2017-07-25T01:38:27.371Z,47.53
2017-07-25T01:40:55.124Z,48.27
2017-07-25T01:43:23.090Z,47.33
2017-07-25T01:45:51.133Z,46.98
2017-07-25T01:48:18.951Z,47.14
2017-07-25T01:50:46.769Z,47.53
2017-07-25T01:53:14.760Z,47.82
2017-07-25T01:55:42.644Z,47.38
2017-07-25T01:58:10.494Z,47.32
2017-07-25T02:00:38.582Z,47.54
2017-07-25T02:03:06.429Z,48.21
2017-07-25T02:05:34.296Z,46.48
2017-07-25T02:08:02.038Z,46.08
2017-07-25T02:10:29.957Z,45.89
2017-07-25T02:12:57.823Z,45.46
2017-07-25T02:15:25.794Z,44.84
2017-07-25T02:17:53.649Z,44.72
2017-07-25T02:20:21.375Z,45.16
2017-07-25T02:22:49.385Z,44.89
2017-07-25T02:25:17.057Z,44.56
2017-07-25T02:27:44.899Z,44.60
2017-07-25T02:30:12.843Z,44.11
2017-07-25T02:32:40.851Z,44.42
2017-07-25T02:35:08.700Z,44.38
2017-07-25T02:37:36.997Z,44.21
2017-07-25T02:40:04.710Z,44.47
2017-07-25T02:42:32.678Z,44.35
2017-07-25T02:45:00.497Z,45.12
2017-07-25T02:47:28.364Z,44.52
2017-07-25T02:49:56.305Z,44.07
2017-07-25T02:52:23.992Z,44.36
2017-07-25T02:54:51.838Z,44.43
2017-07-25T02:57:19.725Z,44.45
2017-07-25T02:59:47.724Z,44.57
2017-07-25T03:02:15.566Z,44.58
2017-07-25T03:04:43.326Z,44.12
2017-07-25T03:07:11.325Z,44.39
2017-07-25T03:09:39.168Z,44.34
2017-07-25T03:12:07.035Z,44.77
2017-07-25T03:14:34.998Z,44.16
2017-07-25T03:17:02.846Z,44.25
2017-07-25T03:19:30.586Z,44.26
2017-07-25T03:21:58.599Z,43.52
2017-07-25T03:24:26.570Z,43.45
2017-07-25T03:26:54.389Z,43.43
2017-07-25T03:29:22.379Z,43.35
2017-07-25T03:31:50.122Z,42.97
2017-07-25T03:34:18.142Z,43.06
2017-07-25T03:36:46.181Z,42.66
2017-07-25T03:39:14.076Z,42.25
2017-07-25T03:41:41.916Z,42.13
2017-07-25T03:44:09.917Z,42.00
2017-07-25T03:46:37.725Z,41.06
2017-07-25T03:49:05.643Z,41.31
2017-07-25T03:51:33.585Z,40.26
2017-07-25T03:54:01.484Z,39.90
2017-07-25T03:56:29.344Z,38.56
2017-07-25T03:58:57.421Z,36.57
2017-07-25T04:01:25.152Z,34.89
2017-07-25T04:03:53.144Z,34.68
2017-07-25T04:06:21.189Z,34.87
2017-07-25T04:08:49.093Z,34.99
2017-07-25T04:11:16.961Z,34.46
2017-07-25T04:13:45.013Z,33.02
2017-07-25T04:16:12.899Z,32.39
2017-07-25T04:18:40.623Z,32.85
2017-07-25T04:21:08.542Z,32.12
2017-07-25T04:23:36.411Z,30.90
2017-07-25T04:26:04.351Z,30.54
2017-07-25T04:28:32.342Z,30.47
2017-07-25T04:31:00.160Z,30.40
2017-07-25T04:33:28.173Z,29.85
2017-07-25T04:35:56.189Z,29.36
2017-07-25T04:38:24.011Z,29.86
2017-07-25T04:40:51.873Z,29.18
2017-07-25T04:43:19.698Z,28.67
2017-07-25T04:45:47.711Z,29.11
2017-07-25T04:48:15.430Z,30.04
2017-07-25T04:50:43.446Z,30.90
2017-07-25T04:53:11.297Z,30.06
2017-07-25T04:55:39.031Z,30.17
2017-07-25T04:58:07.044Z,29.03
2017-07-25T05:00:34.767Z,30.44
2017-07-25T05:03:02.687Z,30.24
2017-07-25T05:05:30.502Z,29.07
2017-07-25T05:07:58.512Z,29.10
2017-07-25T05:10:26.359Z,28.29
2017-07-25T05:12:54.249Z,28.67
2017-07-25T05:15:21.969Z,26.42
2017-07-25T05:17:49.886Z,27.37
2017-07-25T05:20:17.930Z,30.02
2017-07-25T05:22:45.797Z,30.13
2017-07-25T05:25:13.664Z,28.09
2017-07-25T05:27:41.658Z,26.54
2017-07-25T05:30:09.325Z,28.00
2017-07-25T05:32:37.141Z,29.75
2017-07-25T05:35:05.138Z,30.79
2017-07-25T05:37:32.924Z,31.58
2017-07-25T05:40:00.891Z,33.90
2017-07-25T05:42:28.760Z,35.83
2017-07-25T05:44:56.478Z,36.89
2017-07-25T05:47:24.473Z,36.94
2017-07-25T05:49:52.349Z,37.49
2017-07-25T05:52:20.154Z,34.03
2017-07-25T05:54:47.996Z,31.11
2017-07-25T05:57:15.814Z,28.97
2017-07-25T05:59:43.780Z,27.54
2017-07-25T06:02:11.669Z,25.16
2017-07-25T06:07:12.140Z,26.59
2017-07-25T06:09:39.824Z,27.57
2017-07-25T06:12:07.866Z,30.62
2017-07-25T06:14:35.635Z,31.21
2017-07-25T06:17:03.598Z,31.52
2017-07-25T06:19:31.443Z,28.14
2017-07-25T06:21:59.331Z,25.89
2017-07-25T06:24:27.329Z,25.28
2017-07-25T06:26:55.172Z,22.37
2017-07-25T06:29:23.313Z,22.39
2017-07-25T06:31:51.056Z,25.72
2017-07-25T06:34:18.924Z,28.11
2017-07-25T06:36:46.890Z,31.88
2017-07-25T06:39:14.757Z,30.05
2017-07-25T06:41:42.599Z,29.20
2017-07-25T06:44:10.448Z,29.04
2017-07-25T06:46:38.411Z,31.92
2017-07-25T06:49:06.252Z,28.98
2017-07-25T06:51:34.042Z,27.02
2017-07-25T06:54:02.009Z,29.36
2017-07-25T06:56:29.730Z,30.14
2017-07-25T06:58:57.641Z,29.96
2017-07-25T07:01:25.562Z,30.30
2017-07-25T07:03:53.331Z,30.21
2017-07-25T07:06:21.323Z,27.13
2017-07-25T07:08:49.266Z,28.29
2017-07-25T07:11:17.231Z,29.15
2017-07-25T07:13:45.127Z,30.84
2017-07-25T07:16:13.167Z,34.00
2017-07-25T07:18:40.883Z,36.43
2017-07-25T07:21:08.728Z,37.82
2017-07-25T07:23:36.719Z,39.57
2017-07-25T07:26:04.537Z,41.50
2017-07-25T07:28:32.556Z,42.04
2017-07-25T07:31:00.491Z,45.55
2017-07-25T07:33:28.487Z,50.05
2017-07-25T07:35:56.361Z,48.35
2017-07-25T07:38:24.318Z,49.16
2017-07-25T07:40:52.298Z,50.08
2017-07-25T07:43:20.033Z,49.79
2017-07-25T07:45:47.828Z,49.90
2017-07-25T07:48:15.501Z,49.79
2017-07-25T07:50:43.533Z,48.47
2017-07-25T07:53:11.429Z,44.39
2017-07-25T07:55:39.296Z,42.18
2017-07-25T07:58:07.009Z,41.46
2017-07-25T08:00:35.030Z,40.31
2017-07-25T08:03:02.870Z,40.80
2017-07-25T08:05:30.764Z,40.53
2017-07-25T08:07:58.730Z,40.54
2017-07-25T08:10:26.565Z,39.99
2017-07-25T08:12:54.549Z,36.73
2017-07-25T08:15:22.579Z,36.06
2017-07-25T08:17:50.186Z,35.26
2017-07-25T08:20:17.836Z,33.88
2017-07-25T08:22:45.528Z,32.96
2017-07-25T08:25:13.148Z,30.02
2017-07-25T08:27:40.774Z,31.45
2017-07-25T08:30:08.447Z,30.75
2017-07-25T08:32:36.116Z,31.11
2017-07-25T08:35:03.748Z,34.50
2017-07-25T08:37:31.786Z,35.43
2017-07-25T08:39:59.581Z,36.82
2017-07-25T08:42:27.395Z,35.74
2017-07-25T08:44:56.210Z,32.70
2017-07-25T08:47:23.956Z,32.33
2017-07-25T08:49:51.930Z,30.99
2017-07-25T08:52:19.668Z,30.02
2017-07-25T08:54:47.656Z,31.48
2017-07-25T08:57:15.557Z,31.23
2017-07-25T08:59:43.630Z,31.78
2017-07-25T09:02:11.683Z,33.95
2017-07-25T09:04:39.549Z,37.09
2017-07-25T09:07:07.614Z,37.75
2017-07-25T09:09:35.505Z,37.77
2017-07-25T09:12:03.228Z,38.00
2017-07-25T09:14:31.033Z,38.24
2017-07-25T09:17:01.562Z,38.12
2017-07-25T09:19:34.379Z,37.73
2017-07-25T09:22:03.973Z,38.01
2017-07-25T09:24:31.717Z,38.31
2017-07-25T09:26:59.574Z,38.95
2017-07-25T09:29:27.422Z,38.05
2017-07-25T09:31:55.160Z,37.47
2017-07-25T09:34:23.390Z,36.17
2017-07-25T09:36:51.112Z,34.19
2017-07-25T09:39:18.769Z,30.86
2017-07-25T09:41:46.415Z,30.33
2017-07-25T09:44:14.027Z,31.78
2017-07-25T09:46:41.700Z,32.38
2017-07-25T09:49:09.774Z,31.72
2017-07-25T09:51:37.628Z,30.90
2017-07-25T09:54:05.267Z,29.98
2017-07-25T09:56:32.908Z,30.16
2017-07-25T09:59:00.512Z,31.22
2017-07-25T10:01:28.122Z,31.93
2017-07-25T10:03:55.773Z,30.95
2017-07-25T10:06:23.454Z,31.24
2017-07-25T10:08:51.140Z,31.80
2017-07-25T10:11:18.829Z,33.13
2017-07-25T10:13:46.443Z,34.54
2017-07-25T10:16:14.088Z,37.51
2017-07-25T10:18:42.070Z,38.13
2017-07-25T10:21:09.913Z,36.03
2017-07-25T10:23:37.481Z,37.29
2017-07-25T10:26:05.130Z,37.40
2017-07-25T10:28:32.749Z,37.33
2017-07-25T10:31:00.328Z,36.40
2017-07-25T10:33:28.000Z,33.34
2017-07-25T10:35:55.899Z,31.14
2017-07-25T10:38:23.541Z,28.65
2017-07-25T10:40:51.163Z,27.67
2017-07-25T10:43:18.859Z,27.04
2017-07-25T10:45:46.470Z,27.42
2017-07-25T10:48:14.063Z,25.88
2017-07-25T10:50:41.734Z,28.18
2017-07-25T10:53:09.295Z,28.08
2017-07-25T10:55:36.849Z,25.45
2017-07-25T10:58:04.458Z,25.35
2017-07-25T11:00:32.010Z,25.14
2017-07-25T11:02:59.649Z,25.47
2017-07-25T11:05:27.336Z,27.38
2017-07-25T11:07:54.971Z,29.83
2017-07-25T11:10:22.586Z,28.78
2017-07-25T11:12:50.272Z,31.01
2017-07-25T11:15:17.856Z,39.14
2017-07-25T11:17:45.434Z,43.42
2017-07-25T11:20:13.079Z,44.84
2017-07-25T11:22:40.661Z,45.09
2017-07-25T11:25:08.246Z,44.71
2017-07-25T11:27:35.860Z,43.97
2017-07-25T11:30:03.427Z,43.99
2017-07-25T11:32:30.977Z,47.16
2017-07-25T11:34:58.621Z,48.93
2017-07-25T11:37:26.195Z,51.03
2017-07-25T11:39:53.757Z,52.61
2017-07-25T11:42:21.403Z,52.25
2017-07-25T11:44:48.953Z,53.97
2017-07-25T11:47:16.601Z,54.38
2017-07-25T11:49:44.181Z,52.87
2017-07-25T11:52:11.792Z,53.15
2017-07-25T11:54:39.451Z,54.98
2017-07-25T11:57:07.006Z,54.27
2017-07-25T11:59:34.610Z,52.84
2017-07-25T12:02:02.219Z,52.90
2017-07-25T12:04:29.790Z,50.51
2017-07-25T12:06:57.361Z,50.64
2017-07-25T12:09:24.980Z,47.36
2017-07-25T12:11:52.532Z,46.19
2017-07-25T12:14:20.103Z,46.48
2017-07-25T12:16:47.733Z,47.85
2017-07-25T12:19:15.299Z,48.13
2017-07-25T12:21:45.848Z,49.29
2017-07-25T12:24:13.456Z,51.16
2017-07-25T12:26:41.010Z,48.24
2017-07-25T12:29:08.580Z,47.26
2017-07-25T12:31:36.224Z,47.55
2017-07-25T12:34:03.990Z,46.78
2017-07-25T12:36:31.607Z,46.14
2017-07-25T12:38:59.238Z,42.07
2017-07-25T12:41:26.793Z,43.05
2017-07-25T12:43:54.424Z,43.80
2017-07-25T12:46:22.056Z,44.57
2017-07-25T12:48:49.618Z,45.41
2017-07-25T12:51:17.281Z,47.07
2017-07-25T12:53:45.174Z,47.08
2017-07-25T12:56:12.718Z,46.89
2017-07-25T12:58:40.268Z,45.07
2017-07-25T13:01:19.752Z,45.68
2017-07-25T13:03:47.385Z,46.79
2017-07-25T13:06:14.992Z,49.57
2017-07-25T13:08:42.886Z,46.87
2017-07-25T13:11:10.753Z,45.16
2017-07-25T13:13:38.504Z,47.68
2017-07-25T13:16:06.185Z,48.00
2017-07-25T13:18:33.866Z,48.19
2017-07-25T13:21:01.474Z,48.33
2017-07-25T13:23:29.223Z,48.83
2017-07-25T13:25:56.840Z,50.18
2017-07-25T13:28:24.475Z,50.37
2017-07-25T13:30:52.160Z,49.99
2017-07-25T13:33:20.052Z,50.41
2017-07-25T13:35:47.668Z,49.35
2017-07-25T13:38:15.545Z,50.22
2017-07-25T13:40:43.217Z,50.96
2017-07-25T13:43:10.965Z,50.78
2017-07-25T13:45:38.769Z,49.52
2017-07-25T13:48:07.079Z,48.44
2017-07-25T13:50:34.908Z,48.00
2017-07-25T13:53:03.338Z,48.23
2017-07-25T13:55:31.039Z,47.98
2017-07-25T13:57:58.721Z,48.23
2017-07-25T14:00:26.486Z,48.10
2017-07-25T14:02:54.102Z,49.67
2017-07-25T14:05:21.709Z,49.63
2017-07-25T14:07:49.473Z,49.73
2017-07-25T14:10:17.132Z,50.52
2017-07-25T14:12:44.746Z,50.85
2017-07-25T14:15:12.427Z,50.13
2017-07-25T14:17:40.055Z,50.14
2017-07-25T14:20:07.683Z,50.76
2017-07-25T14:22:35.350Z,49.85
2017-07-25T14:25:02.964Z,54.95
2017-07-25T14:27:30.585Z,52.51
2017-07-25T14:29:58.273Z,51.72
2017-07-25T14:32:25.900Z,51.57
2017-07-25T14:34:54.506Z,50.05
2017-07-25T14:37:22.169Z,52.19
2017-07-25T14:39:49.776Z,61.63
2017-07-25T14:42:17.376Z,63.21
2017-07-25T14:44:45.040Z,58.77
2017-07-25T14:47:12.638Z,56.00
2017-07-25T14:49:40.270Z,57.84
2017-07-25T14:52:08.030Z,59.88
2017-07-25T14:54:35.639Z,60.61
2017-07-25T14:57:03.246Z,64.09
2017-07-25T14:59:31.060Z,67.73
2017-07-25T15:01:58.769Z,71.37
2017-07-25T15:04:26.586Z,72.26
2017-07-25T15:06:54.306Z,80.31
2017-07-25T15:09:22.222Z,81.29
2017-07-25T15:11:50.163Z,84.58
2017-07-25T15:14:18.053Z,80.68
2017-07-25T15:16:46.021Z,84.11
2017-07-25T15:19:14.062Z,85.44
2017-07-25T15:21:41.720Z,86.02
2017-07-25T15:24:09.454Z,87.69
2017-07-25T15:26:37.052Z,87.04
2017-07-25T15:29:04.700Z,87.07
2017-07-25T15:31:32.309Z,88.35
2017-07-25T15:34:00.143Z,86.89
2017-07-25T15:36:27.893Z,85.71
2017-07-25T15:38:55.751Z,86.19
2017-07-25T15:41:23.673Z,86.38
2017-07-25T15:43:51.328Z,87.42
2017-07-25T15:46:18.936Z,86.68
2017-07-25T15:48:46.525Z,86.39
2017-07-25T15:51:14.176Z,87.23
2017-07-25T15:53:41.798Z,87.37
2017-07-25T15:56:09.409Z,86.48
2017-07-25T15:58:37.108Z,87.92
2017-07-25T16:01:04.712Z,85.73
2017-07-25T16:03:32.311Z,88.33
2017-07-25T16:05:59.984Z,88.18
2017-07-25T16:08:27.591Z,87.65
2017-07-25T16:10:55.218Z,87.36
2017-07-25T16:13:22.877Z,88.39
2017-07-25T16:15:50.635Z,88.87
2017-07-25T16:18:18.291Z,89.35
2017-07-25T16:20:45.957Z,89.91
2017-07-25T16:23:13.586Z,89.50
2017-07-25T16:25:41.213Z,89.95
2017-07-25T16:28:08.882Z,89.30
2017-07-25T16:30:36.498Z,87.80
2017-07-25T16:33:04.117Z,89.41
2017-07-25T16:35:32.113Z,90.31
2017-07-25T16:37:59.710Z,90.48
2017-07-25T16:40:27.314Z,88.22
2017-07-25T16:42:54.963Z,89.43
2017-07-25T16:45:22.578Z,89.54
2017-07-25T16:47:50.181Z,89.41
2017-07-25T16:50:17.835Z,89.20
2017-07-25T16:52:45.449Z,89.73
2017-07-25T16:55:13.049Z,90.81
2017-07-25T16:57:40.724Z,88.62
2017-07-25T17:00:08.324Z,88.31
2017-07-25T17:02:35.931Z,86.86
2017-07-25T17:05:03.594Z,87.72
2017-07-25T17:07:31.206Z,88.86
2017-07-25T17:09:58.820Z,88.76
2017-07-25T17:12:26.476Z,88.86
2017-07-25T17:14:54.065Z,89.27
2017-07-25T17:17:21.687Z,89.50
2017-07-25T17:19:49.368Z,90.52
2017-07-25T17:22:17.010Z,91.18
2017-07-25T17:24:44.621Z,91.77
2017-07-25T17:27:12.273Z,89.59
2017-07-25T17:29:39.877Z,89.68
2017-07-25T17:32:07.481Z,90.35
2017-07-25T17:34:35.125Z,90.31
2017-07-25T17:37:02.731Z,90.14
2017-07-25T17:39:30.333Z,90.35
2017-07-25T17:41:57.997Z,89.45
2017-07-25T17:44:25.619Z,89.31
2017-07-25T17:46:53.205Z,88.84
2017-07-25T17:49:20.846Z,88.19
2017-07-25T17:51:48.488Z,89.95
2017-07-25T17:54:16.089Z,91.53
2017-07-25T17:56:43.741Z,90.55
2017-07-25T17:59:11.345Z,90.38
2017-07-25T18:01:38.954Z,90.35
2017-07-25T18:04:06.605Z,90.26
2017-07-25T18:06:34.219Z,89.31
2017-07-25T18:09:01.829Z,90.78
2017-07-25T18:11:29.500Z,89.56
2017-07-25T18:13:57.099Z,89.77
2017-07-25T18:16:24.710Z,90.02
2017-07-25T18:18:52.374Z,88.67
2017-07-25T18:21:20.028Z,89.00
2017-07-25T18:23:47.622Z,90.99
2017-07-25T18:26:15.270Z,90.74
2017-07-25T18:28:42.880Z,90.33
2017-07-25T18:31:10.472Z,90.58
2017-07-25T18:33:38.113Z,90.94
2017-07-25T18:36:05.733Z,90.12
2017-07-25T18:38:33.524Z,89.66
2017-07-25T18:41:01.188Z,86.73
2017-07-25T18:43:28.900Z,85.38
2017-07-25T18:45:56.702Z,88.12
2017-07-25T18:48:24.515Z,88.12
2017-07-25T18:50:53.200Z,87.02
2017-07-25T18:53:21.298Z,86.67
2017-07-25T18:55:49.857Z,87.50
2017-07-25T18:58:17.766Z,87.47
2017-07-25T19:00:46.174Z,85.29
2017-07-25T19:03:15.090Z,85.17
2017-07-25T19:05:42.694Z,85.41
2017-07-25T19:08:10.304Z,86.23
2017-07-25T19:10:37.974Z,87.80
2017-07-25T19:13:05.577Z,88.01
2017-07-25T19:15:33.182Z,86.65
2017-07-25T19:18:00.889Z,86.93
2017-07-25T19:20:28.490Z,89.10
2017-07-25T19:22:57.139Z,87.69
2017-07-25T19:25:24.929Z,88.57
2017-07-25T19:27:52.712Z,88.37
2017-07-25T19:30:20.364Z,89.22
2017-07-25T19:32:48.096Z,88.25
2017-07-25T19:35:15.723Z,87.33
2017-07-25T19:37:43.639Z,88.10
2017-07-25T19:40:11.264Z,88.13
2017-07-25T19:42:38.889Z,87.31
2017-07-25T19:45:06.531Z,87.71
2017-07-25T19:47:34.147Z,86.98
2017-07-25T19:50:01.826Z,88.11
2017-07-25T19:52:29.500Z,87.20
2017-07-25T19:54:57.094Z,88.94
2017-07-25T19:57:24.765Z,87.76
2017-07-25T19:59:52.372Z,87.91
2017-07-25T20:02:19.988Z,88.15
2017-07-25T20:04:47.643Z,88.44
2017-07-25T20:07:15.249Z,89.14
2017-07-25T20:09:42.915Z,89.81
2017-07-25T20:12:10.591Z,88.57
2017-07-25T20:14:38.206Z,89.63
2017-07-25T20:17:05.794Z,89.47
2017-07-25T20:19:33.437Z,90.60
2017-07-25T20:22:01.036Z,89.79
2017-07-25T20:24:28.668Z,89.70
2017-07-25T20:26:56.340Z,89.22
2017-07-25T20:29:23.933Z,89.23
2017-07-25T20:31:51.541Z,90.10
2017-07-25T20:34:19.199Z,90.68
2017-07-25T20:36:48.275Z,88.63
2017-07-25T20:39:15.957Z,90.09
2017-07-25T20:41:43.619Z,89.80
2017-07-25T20:44:11.226Z,89.93
2017-07-25T20:46:38.864Z,90.23
2017-07-25T20:49:06.578Z,89.95
2017-07-25T20:51:34.264Z,89.88
2017-07-25T20:54:01.883Z,89.02
2017-07-25T20:56:29.514Z,90.73
2017-07-25T20:58:57.236Z,90.24
2017-07-25T21:01:24.892Z,89.21
2017-07-25T21:03:52.504Z,90.33
2017-07-25T21:06:20.175Z,90.38
2017-07-25T21:08:47.796Z,91.18
2017-07-25T21:11:15.521Z,91.16
2017-07-25T21:13:43.186Z,91.78
2017-07-25T21:16:10.804Z,91.33
2017-07-25T21:18:38.424Z,90.76
2017-07-25T21:21:06.063Z,90.64
2017-07-25T21:23:33.657Z,91.46
2017-07-25T21:26:01.363Z,91.10
2017-07-25T21:28:28.969Z,91.12
2017-07-25T21:30:56.562Z,91.43
2017-07-25T21:33:24.247Z,91.37
2017-07-25T21:35:51.854Z,90.48
2017-07-25T21:38:19.454Z,89.70
2017-07-25T21:40:47.114Z,89.22
2017-07-25T21:43:14.733Z,89.24
2017-07-25T21:45:42.340Z,89.43
2017-07-25T21:48:10.004Z,89.97
2017-07-25T21:50:37.616Z,89.71
2017-07-25T21:53:05.244Z,90.49
2017-07-25T21:55:32.913Z,91.21
2017-07-25T21:58:00.525Z,91.25
2017-07-25T22:00:28.166Z,91.38
2017-07-25T22:03:07.537Z,91.46
2017-07-25T22:05:35.152Z,91.62
2017-07-25T22:08:02.808Z,92.16
2017-07-25T22:10:30.502Z,92.62
2017-07-25T22:12:58.125Z,92.49
2017-07-25T22:15:25.735Z,92.79
2017-07-25T22:17:53.433Z,92.41
2017-07-25T22:20:21.060Z,92.78
2017-07-25T22:22:48.673Z,92.84
2017-07-25T22:25:16.332Z,92.17
2017-07-25T22:27:43.951Z,91.45
2017-07-25T22:30:11.553Z,91.06
2017-07-25T22:32:39.244Z,91.21
2017-07-25T22:35:06.858Z,91.63
2017-07-25T22:37:34.493Z,92.08
2017-07-25T22:40:02.350Z,92.35
2017-07-25T22:42:29.969Z,91.96
2017-07-25T22:44:57.576Z,91.97
2017-07-25T22:47:25.655Z,91.34
2017-07-25T22:49:53.280Z,90.54
2017-07-25T22:52:20.891Z,91.35
2017-07-25T22:54:48.584Z,92.09
2017-07-25T22:57:16.208Z,92.18
2017-07-25T22:59:43.825Z,92.97
2017-07-25T23:02:11.509Z,92.50
2017-07-25T23:04:39.110Z,91.83
2017-07-25T23:07:06.745Z,92.09
2017-07-25T23:09:34.427Z,92.38
2017-07-25T23:12:02.050Z,92.87
2017-07-25T23:14:29.671Z,92.86
2017-07-25T23:16:57.332Z,92.71
2017-07-25T23:19:24.954Z,92.78
2017-07-25T23:21:52.570Z,92.21
2017-07-25T23:24:20.291Z,92.96
2017-07-25T23:26:47.908Z,93.15
2017-07-25T23:29:15.529Z,92.62
2017-07-25T23:31:43.208Z,92.41
2017-07-25T23:34:10.850Z,92.84
2017-07-25T23:36:38.464Z,92.78
2017-07-25T23:39:06.153Z,92.52
2017-07-25T23:41:33.786Z,92.44
2017-07-25T23:44:01.408Z,92.11
2017-07-25T23:46:29.084Z,92.45
2017-07-25T23:48:56.691Z,92.29
2017-07-25T23:51:24.317Z,92.37
2017-07-25T23:53:52.003Z,92.50
2017-07-25T23:56:19.634Z,92.67
2017-07-25T23:58:47.273Z,92.79
